Time;durP1;ratioP1;P1;durP2;ratioP2;P2;SDS_P1;SDS_P2;PMS_P1;PMS_P2;Temp;Humidity;BMP_temperature;BMP_pressure;BME280_temperature;BME280_humidity;BME280_pressure;Samples;Min_cycle;Max_cycle;Signal;HPM_P1;HPM_P2
2021/07/16 00:00:46;;;;;;;19.15;8.15;;;16.90;92.70;;;;;;5011253;28;20042;-55
2021/07/16 00:03:12;;;;;;;17.75;7.05;;;16.90;93.00;;;;;;5012318;28;20529;-54
2021/07/16 00:05:39;;;;;;;23.00;7.85;;;16.80;93.10;;;;;;5008333;28;20057;-52
2021/07/16 00:08:06;;;;;;;18.92;7.57;;;16.80;93.10;;;;;;5011231;28;20038;-52
2021/07/16 00:10:32;;;;;;;15.60;6.95;;;16.80;93.20;;;;;;4993345;28;20046;-52
2021/07/16 00:12:58;;;;;;;19.38;7.07;;;16.80;93.10;;;;;;5011006;28;20034;-55
2021/07/16 00:15:24;;;;;;;22.58;7.65;;;16.80;93.10;;;;;;5011014;28;20137;-54
2021/07/16 00:17:51;;;;;;;18.05;7.30;;;16.70;93.10;;;;;;5011099;28;20117;-53
2021/07/16 00:20:17;;;;;;;21.60;7.38;;;16.70;93.20;;;;;;5028399;28;20041;-54
2021/07/16 00:22:43;;;;;;;21.30;6.70;;;16.80;93.30;;;;;;5011581;28;20096;-54
2021/07/16 00:25:10;;;;;;;16.67;8.20;;;16.70;93.20;;;;;;5015203;28;20065;-51
2021/07/16 00:27:36;;;;;;;16.80;7.43;;;16.70;93.20;;;;;;5012103;28;20514;-54
2021/07/16 00:30:05;;;;;;;22.70;7.40;;;16.70;93.20;;;;;;5010227;28;20034;-53
2021/07/16 00:32:31;;;;;;;15.55;7.18;;;16.70;93.10;;;;;;5012440;28;20453;-55
2021/07/16 00:34:57;;;;;;;20.27;7.03;;;16.70;93.10;;;;;;5010698;28;20046;-53
2021/07/16 00:37:22;;;;;;;20.25;7.18;;;16.70;93.20;;;;;;5011590;28;20034;-54
2021/07/16 00:39:48;;;;;;;17.77;7.22;;;16.70;93.20;;;;;;5010155;28;20049;-54
2021/07/16 00:42:14;;;;;;;18.60;6.82;;;16.70;93.20;;;;;;5003639;28;20030;-52
2021/07/16 00:44:40;;;;;;;17.73;6.72;;;16.70;93.00;;;;;;5010783;28;20500;-51
2021/07/16 00:47:07;;;;;;;19.02;7.60;;;16.60;92.80;;;;;;5011817;28;20042;-52
2021/07/16 00:49:34;;;;;;;18.40;6.95;;;16.60;92.90;;;;;;5008591;28;20096;-53
2021/07/16 00:52:01;;;;;;;19.00;6.88;;;16.60;93.00;;;;;;5011384;28;20494;-54
2021/07/16 00:54:27;;;;;;;15.65;7.57;;;16.50;92.90;;;;;;5008353;28;20046;-55
2021/07/16 00:56:54;;;;;;;20.20;7.43;;;16.60;92.90;;;;;;5005332;28;20064;-52
2021/07/16 00:59:20;;;;;;;21.02;7.20;;;16.60;92.30;;;;;;5004924;28;20038;-53
2021/07/16 01:01:46;;;;;;;21.95;7.75;;;16.60;92.50;;;;;;5016728;28;20029;-54
2021/07/16 01:04:13;;;;;;;24.98;7.47;;;16.50;92.60;;;;;;5020755;28;20044;-51
2021/07/16 01:06:40;;;;;;;25.92;8.93;;;16.50;92.70;;;;;;5011502;28;20483;-54
2021/07/16 01:09:06;;;;;;;17.20;7.00;;;16.50;92.80;;;;;;5016368;28;20115;-52
2021/07/16 01:11:33;;;;;;;19.67;7.53;;;16.50;92.80;;;;;;4994217;28;20038;-51
2021/07/16 01:13:59;;;;;;;22.33;9.63;;;16.50;92.90;;;;;;5016382;28;20038;-51
2021/07/16 01:16:26;;;;;;;21.25;7.10;;;16.40;92.90;;;;;;4992850;28;20049;-54
2021/07/16 01:18:52;;;;;;;18.52;7.15;;;16.50;93.00;;;;;;5008547;28;20548;-52
2021/07/16 01:21:18;;;;;;;20.25;7.65;;;16.50;93.10;;;;;;5010751;28;20399;-53
2021/07/16 01:23:44;;;;;;;22.92;7.53;;;16.40;93.10;;;;;;5017571;28;20042;-55
2021/07/16 01:26:11;;;;;;;25.10;7.75;;;16.50;92.90;;;;;;5010398;28;20045;-55
2021/07/16 01:28:39;;;;;;;24.48;7.70;;;16.40;92.90;;;;;;5009396;28;20534;-51
2021/07/16 01:31:06;;;;;;;21.73;7.50;;;16.40;93.10;;;;;;5014232;28;20550;-54
2021/07/16 01:33:32;;;;;;;18.58;7.40;;;16.40;93.20;;;;;;5017475;28;20046;-54
2021/07/16 01:35:59;;;;;;;22.80;7.50;;;16.40;93.20;;;;;;5013906;28;20048;-54
2021/07/16 01:38:26;;;;;;;28.33;8.30;;;16.40;93.20;;;;;;4994385;28;20074;-53
2021/07/16 01:40:53;;;;;;;21.58;7.68;;;16.40;93.20;;;;;;5011275;28;20046;-51
2021/07/16 01:43:19;;;;;;;20.05;6.93;;;16.40;93.20;;;;;;4980579;28;20233;-50
2021/07/16 01:45:45;;;;;;;21.48;7.10;;;16.40;93.10;;;;;;5002785;28;20038;-53
2021/07/16 01:48:15;;;;;;;27.45;7.57;;;16.30;93.10;;;;;;5010227;28;20472;-50
2021/07/16 01:50:44;;;;;;;21.95;7.35;;;16.30;93.10;;;;;;5011126;28;20451;-51
2021/07/16 01:53:11;;;;;;;23.73;6.85;;;16.30;93.10;;;;;;5011031;28;20065;-53
2021/07/16 01:55:40;;;;;;;24.63;7.60;;;16.30;93.10;;;;;;5010100;28;20034;-53
2021/07/16 01:58:09;;;;;;;25.85;7.82;;;16.30;93.10;;;;;;5010188;28;20049;-53
2021/07/16 02:00:41;;;;;;;22.20;7.35;;;16.30;93.20;;;;;;5009126;28;20161;-51
2021/07/16 02:03:11;;;;;;;20.05;8.07;;;16.30;93.20;;;;;;5014340;28;20033;-53
2021/07/16 02:05:42;;;;;;;21.90;6.85;;;16.30;93.30;;;;;;5026623;28;20554;-51
2021/07/16 02:08:15;;;;;;;20.75;7.10;;;16.30;92.90;;;;;;5023902;28;20072;-52
2021/07/16 02:10:43;;;;;;;20.63;7.15;;;16.30;93.00;;;;;;5028488;28;20497;-51
2021/07/16 02:13:09;;;;;;;22.65;7.00;;;16.30;93.00;;;;;;5018181;28;20077;-53
2021/07/16 02:15:38;;;;;;;22.88;6.80;;;16.30;93.10;;;;;;5000342;28;20495;-50
2021/07/16 02:18:07;;;;;;;24.10;7.40;;;16.20;93.10;;;;;;5003688;28;20593;-52
2021/07/16 02:20:35;;;;;;;22.38;6.88;;;16.20;93.10;;;;;;5002637;28;20050;-53
2021/07/16 02:23:05;;;;;;;21.77;6.68;;;16.20;93.00;;;;;;5008312;28;20046;-52
2021/07/16 02:25:31;;;;;;;28.98;8.40;;;16.20;93.10;;;;;;4987712;28;20533;-50
2021/07/16 02:28:05;;;;;;;19.90;6.82;;;16.20;93.10;;;;;;5013869;28;20069;-53
2021/07/16 02:30:32;;;;;;;18.63;7.15;;;16.20;93.20;;;;;;5014413;28;20045;-52
2021/07/16 02:33:00;;;;;;;28.38;6.88;;;16.20;93.10;;;;;;5018485;28;20066;-51
2021/07/16 02:35:27;;;;;;;28.13;8.00;;;16.20;92.90;;;;;;5007186;28;20061;-55
2021/07/16 02:37:53;;;;;;;23.67;7.10;;;16.20;92.90;;;;;;5008376;28;20045;-53
2021/07/16 02:40:22;;;;;;;23.95;6.63;;;16.10;92.90;;;;;;4979870;28;20388;-52
2021/07/16 02:42:49;;;;;;;25.25;6.68;;;16.10;93.00;;;;;;5001808;28;20038;-50
2021/07/16 02:45:19;;;;;;;26.33;6.68;;;16.10;93.00;;;;;;4995969;28;20042;-50
2021/07/16 02:47:45;;;;;;;22.15;6.30;;;16.10;93.00;;;;;;5014230;28;20046;-50
2021/07/16 02:50:26;;;;;;;20.35;7.28;;;16.10;93.00;;;;;;5013498;28;21272;-52
2021/07/16 02:52:53;;;;;;;24.35;7.03;;;16.10;93.00;;;;;;5013080;28;20042;-52
2021/07/16 02:55:20;;;;;;;23.15;6.55;;;16.10;93.00;;;;;;5010730;28;20457;-53
2021/07/16 02:57:46;;;;;;;27.02;6.72;;;16.10;93.00;;;;;;5012980;28;20041;-53
2021/07/16 03:00:15;;;;;;;20.40;6.78;;;16.10;93.00;;;;;;5012549;28;20045;-51
2021/07/16 03:02:43;;;;;;;23.70;7.10;;;16.10;93.10;;;;;;5005974;28;20046;-49
2021/07/16 03:05:11;;;;;;;23.10;6.93;;;16.00;93.00;;;;;;5009633;28;20045;-49
2021/07/16 03:07:38;;;;;;;29.02;7.38;;;16.00;93.00;;;;;;5004910;28;20046;-52
2021/07/16 03:10:10;;;;;;;20.27;6.00;;;16.00;93.10;;;;;;5012332;28;20076;-51
2021/07/16 03:12:40;;;;;;;21.13;6.22;;;16.00;93.10;;;;;;4995859;28;20049;-51
2021/07/16 03:15:09;;;;;;;24.20;6.07;;;16.00;93.20;;;;;;5006486;28;20113;-51
2021/07/16 03:17:37;;;;;;;21.90;6.30;;;16.00;93.20;;;;;;4975189;28;20042;-50
2021/07/16 03:20:14;;;;;;;21.50;6.53;;;16.00;93.20;;;;;;5013189;28;20113;-54
2021/07/16 03:22:41;;;;;;;19.83;7.43;;;16.00;93.30;;;;;;4995797;28;20041;-54
2021/07/16 03:25:10;;;;;;;24.42;7.40;;;16.00;93.40;;;;;;5012836;28;20056;-54
2021/07/16 03:27:38;;;;;;;26.23;6.85;;;16.00;93.50;;;;;;5012419;28;20080;-51
2021/07/16 03:30:08;;;;;;;25.60;7.10;;;16.00;93.50;;;;;;5021651;28;20076;-53
2021/07/16 03:32:35;;;;;;;29.55;7.05;;;16.00;93.50;;;;;;5017021;28;20053;-53
2021/07/16 03:35:01;;;;;;;19.35;6.55;;;15.90;93.50;;;;;;5012230;28;20045;-53
2021/07/16 03:37:27;;;;;;;22.27;6.68;;;15.90;93.60;;;;;;5027893;28;20054;-56
2021/07/16 03:39:53;;;;;;;25.55;6.15;;;15.90;93.60;;;;;;5012733;28;20491;-53
2021/07/16 03:42:19;;;;;;;25.70;6.60;;;15.90;93.60;;;;;;5012149;28;20046;-53
2021/07/16 03:44:46;;;;;;;23.58;6.30;;;15.90;93.60;;;;;;5011589;28;20510;-53
2021/07/16 03:47:13;;;;;;;23.08;6.55;;;15.90;93.50;;;;;;5012426;28;20045;-53
2021/07/16 03:49:40;;;;;;;23.00;6.38;;;15.90;93.50;;;;;;4998957;28;20180;-53
2021/07/16 03:52:07;;;;;;;20.27;6.43;;;15.90;93.60;;;;;;5010376;28;20091;-54
2021/07/16 03:54:34;;;;;;;17.95;5.95;;;15.90;93.60;;;;;;4994719;28;20503;-52
2021/07/16 03:57:00;;;;;;;20.90;6.70;;;15.90;93.60;;;;;;4998771;28;20561;-53
2021/07/16 03:59:26;;;;;;;22.30;5.95;;;15.90;93.50;;;;;;5011838;28;20045;-53
2021/07/16 04:01:52;;;;;;;17.67;5.63;;;15.90;93.50;;;;;;4994765;28;20053;-53
2021/07/16 04:04:18;;;;;;;27.52;6.38;;;15.90;93.50;;;;;;4994328;28;20478;-54
2021/07/16 04:06:51;;;;;;;18.25;5.93;;;15.80;93.40;;;;;;5004067;28;20088;-52
2021/07/16 04:12:18;;;;;;;22.55;6.00;;;15.90;93.50;;;;;;5013870;28;20498;-54
2021/07/16 04:14:54;;;;;;;22.83;5.63;;;15.80;93.50;;;;;;5019582;28;20133;-54
2021/07/16 04:17:25;;;;;;;15.88;5.53;;;15.90;93.60;;;;;;5011892;28;20054;-54
2021/07/16 04:19:52;;;;;;;22.73;5.97;;;15.90;93.50;;;;;;5012142;28;20065;-53
2021/07/16 04:22:19;;;;;;;21.08;5.65;;;15.90;93.60;;;;;;5027497;28;20053;-54
2021/07/16 04:24:45;;;;;;;26.90;6.50;;;15.90;93.60;;;;;;5014169;28;20391;-52
2021/07/16 04:27:13;;;;;;;23.63;6.03;;;15.90;93.70;;;;;;5009952;28;20041;-54
2021/07/16 04:29:39;;;;;;;23.05;6.15;;;15.90;93.80;;;;;;5011145;28;20050;-53
2021/07/16 04:32:07;;;;;;;19.35;5.97;;;15.90;93.70;;;;;;5010231;28;20038;-53
2021/07/16 04:34:35;;;;;;;22.77;5.72;;;15.90;93.60;;;;;;5026768;28;20046;-51
2021/07/16 04:37:02;;;;;;;27.85;6.10;;;15.90;93.70;;;;;;5011814;28;20054;-51
2021/07/16 04:39:28;;;;;;;21.13;6.43;;;15.90;93.70;;;;;;5011187;28;20037;-53
2021/07/16 04:41:54;;;;;;;24.80;6.47;;;15.90;93.70;;;;;;4999971;28;20050;-53
2021/07/16 04:44:21;;;;;;;24.58;5.32;;;15.90;93.70;;;;;;5004804;28;20097;-52
2021/07/16 04:46:48;;;;;;;26.95;5.53;;;15.90;93.70;;;;;;4993194;28;20050;-51
2021/07/16 04:49:16;;;;;;;25.48;5.68;;;15.90;93.70;;;;;;5011635;28;20065;-49
2021/07/16 04:51:42;;;;;;;23.70;6.43;;;15.90;93.70;;;;;;5008153;28;20387;-53
2021/07/16 04:54:08;;;;;;;24.38;6.20;;;15.90;93.70;;;;;;4998873;28;20066;-52
2021/07/16 04:56:42;;;;;;;23.05;6.07;;;15.90;93.70;;;;;;4989062;28;20050;-52
2021/07/16 04:59:10;;;;;;;20.33;5.68;;;15.90;93.70;;;;;;5003343;28;20343;-54
2021/07/16 05:01:41;;;;;;;23.95;5.10;;;16.00;93.80;;;;;;5006448;28;20057;-52
2021/07/16 05:04:07;;;;;;;22.95;5.93;;;16.00;93.80;;;;;;5013824;28;20042;-52
2021/07/16 05:06:33;;;;;;;27.88;6.00;;;16.00;93.80;;;;;;5007330;28;20488;-53
2021/07/16 05:09:00;;;;;;;23.73;6.13;;;16.00;93.80;;;;;;5017399;28;20195;-54
2021/07/16 05:11:26;;;;;;;22.92;5.97;;;16.00;93.80;;;;;;5027119;28;20052;-52
2021/07/16 05:13:52;;;;;;;20.05;6.22;;;16.00;93.90;;;;;;5008758;28;20041;-52
2021/07/16 05:16:22;;;;;;;29.50;6.47;;;16.00;93.80;;;;;;5005712;28;20114;-54
2021/07/16 05:18:47;;;;;;;22.52;5.80;;;16.00;93.70;;;;;;5006428;28;20054;-52
2021/07/16 05:21:14;;;;;;;23.13;5.60;;;16.00;93.70;;;;;;5019833;28;20418;-54
2021/07/16 05:23:41;;;;;;;26.70;6.38;;;16.00;93.70;;;;;;5014726;28;20046;-52
2021/07/16 05:26:08;;;;;;;25.80;5.65;;;16.00;93.80;;;;;;5010039;28;20053;-54
2021/07/16 05:28:34;;;;;;;27.65;5.65;;;16.00;93.80;;;;;;5009538;28;20049;-53
2021/07/16 05:30:59;;;;;;;22.98;5.65;;;16.00;93.80;;;;;;5009826;28;20160;-51
2021/07/16 05:33:26;;;;;;;29.75;6.57;;;16.00;93.90;;;;;;5008318;28;20262;-54
2021/07/16 05:35:52;;;;;;;28.42;6.38;;;16.00;93.90;;;;;;5013685;28;20041;-54
2021/07/16 05:38:21;;;;;;;24.77;5.90;;;16.10;93.90;;;;;;5014653;28;20164;-52
2021/07/16 05:40:48;;;;;;;18.58;5.55;;;16.10;93.80;;;;;;5014169;28;20062;-55
2021/07/16 05:43:14;;;;;;;23.17;5.90;;;16.10;93.80;;;;;;5013807;28;20042;-53
2021/07/16 05:45:42;;;;;;;24.55;5.35;;;16.10;93.80;;;;;;5023051;28;20045;-55
2021/07/16 05:48:10;;;;;;;23.55;5.88;;;16.10;93.80;;;;;;5014367;28;20038;-52
2021/07/16 05:50:40;;;;;;;26.45;6.05;;;16.10;93.80;;;;;;5003959;28;20082;-53
2021/07/16 05:53:06;;;;;;;21.17;5.10;;;16.10;93.80;;;;;;5006804;28;20065;-53
2021/07/16 05:55:33;;;;;;;27.67;6.13;;;16.10;93.80;;;;;;5013054;28;20037;-52
2021/07/16 05:57:59;;;;;;;30.08;6.10;;;16.10;93.80;;;;;;5015499;28;20042;-53
2021/07/16 06:00:25;;;;;;;28.05;6.28;;;16.10;93.80;;;;;;5014554;28;20042;-54
2021/07/16 06:02:56;;;;;;;27.38;5.88;;;16.10;93.80;;;;;;5013676;28;20049;-54
2021/07/16 06:05:22;;;;;;;25.48;6.25;;;16.10;93.80;;;;;;5008424;28;20171;-54
2021/07/16 06:07:48;;;;;;;26.25;6.07;;;16.20;94.00;;;;;;5014332;28;20042;-51
2021/07/16 06:10:20;;;;;;;22.63;5.50;;;16.20;94.00;;;;;;5015332;28;20490;-52
2021/07/16 06:12:46;;;;;;;25.80;5.68;;;16.20;94.00;;;;;;5018979;28;20045;-51
2021/07/16 06:15:12;;;;;;;26.10;5.68;;;16.30;94.00;;;;;;5013285;28;20042;-51
2021/07/16 06:17:40;;;;;;;23.15;5.82;;;16.30;93.90;;;;;;5013076;28;20077;-52
2021/07/16 06:20:08;;;;;;;28.27;7.43;;;16.30;93.90;;;;;;5011346;28;20409;-54
2021/07/16 06:22:35;;;;;;;23.67;5.50;;;16.30;94.00;;;;;;5027040;28;20069;-54
2021/07/16 06:25:05;;;;;;;27.30;6.03;;;16.30;94.00;;;;;;5018157;28;20137;-54
2021/07/16 06:27:31;;;;;;;25.63;5.80;;;16.30;94.00;;;;;;5023601;28;20091;-54
2021/07/16 06:29:56;;;;;;;31.10;6.50;;;16.40;94.10;;;;;;5014468;28;20037;-54
2021/07/16 06:32:24;;;;;;;25.15;6.40;;;16.40;94.20;;;;;;5015272;28;20050;-54
2021/07/16 06:34:50;;;;;;;22.95;5.60;;;16.40;94.20;;;;;;5008476;28;20411;-53
2021/07/16 06:37:16;;;;;;;24.38;6.43;;;16.40;94.20;;;;;;5029164;28;20045;-54
2021/07/16 06:39:41;;;;;;;23.85;5.28;;;16.40;94.10;;;;;;5031179;28;20516;-53
2021/07/16 06:42:07;;;;;;;37.22;6.40;;;16.40;94.10;;;;;;5016320;28;20470;-54
2021/07/16 06:44:33;;;;;;;29.50;6.43;;;16.50;94.10;;;;;;5024884;28;20057;-54
2021/07/16 06:46:59;;;;;;;24.38;5.63;;;16.50;94.00;;;;;;5014756;28;20080;-51
2021/07/16 06:49:28;;;;;;;21.30;5.70;;;16.50;94.00;;;;;;5021485;28;20100;-54
2021/07/16 06:51:58;;;;;;;27.70;5.88;;;16.50;94.00;;;;;;5020095;28;20451;-53
2021/07/16 06:54:24;;;;;;;28.15;5.55;;;16.50;93.80;;;;;;5018104;28;20053;-53
2021/07/16 06:56:51;;;;;;;29.17;6.18;;;16.50;93.80;;;;;;5016634;28;20107;-54
2021/07/16 06:59:18;;;;;;;33.85;6.18;;;16.50;93.80;;;;;;4998135;28;20434;-52
2021/07/16 07:01:44;;;;;;;31.60;6.15;;;16.50;93.80;;;;;;5011720;28;20042;-53
2021/07/16 07:04:10;;;;;;;21.25;6.22;;;16.50;93.70;;;;;;4990858;28;20045;-53
2021/07/16 07:06:36;;;;;;;24.48;5.78;;;16.50;93.70;;;;;;5012508;28;20088;-52
2021/07/16 07:09:02;;;;;;;24.38;5.95;;;16.60;93.70;;;;;;5012576;28;20045;-54
2021/07/16 07:11:27;;;;;;;33.13;6.82;;;16.60;93.60;;;;;;5024438;28;20494;-50
2021/07/16 07:13:53;;;;;;;25.17;5.97;;;16.60;93.70;;;;;;5009579;28;20049;-56
2021/07/16 07:16:19;;;;;;;27.38;6.32;;;16.60;93.70;;;;;;5020796;28;20038;-53
2021/07/16 07:18:47;;;;;;;24.15;6.13;;;16.60;93.60;;;;;;5010528;28;20093;-53
2021/07/16 07:21:14;;;;;;;30.38;6.03;;;16.60;93.60;;;;;;5012214;28;20088;-52
2021/07/16 07:23:41;;;;;;;31.67;6.20;;;16.60;93.60;;;;;;5013210;28;20049;-53
2021/07/16 07:26:08;;;;;;;25.48;6.07;;;16.60;93.50;;;;;;5011356;28;20103;-53
2021/07/16 07:28:34;;;;;;;29.45;6.20;;;16.60;93.50;;;;;;5012108;28;20069;-53
2021/07/16 07:31:00;;;;;;;30.55;6.35;;;16.60;93.60;;;;;;5015541;28;20490;-54
2021/07/16 07:33:26;;;;;;;27.55;6.18;;;16.60;93.70;;;;;;5023498;28;20072;-52
2021/07/16 07:35:52;;;;;;;29.58;5.53;;;16.50;93.70;;;;;;5010173;28;20030;-54
2021/07/16 07:38:18;;;;;;;31.13;6.28;;;16.60;93.60;;;;;;4999442;28;20069;-54
2021/07/16 07:40:44;;;;;;;27.95;6.25;;;16.60;93.60;;;;;;5000163;28;20059;-53
2021/07/16 07:43:10;;;;;;;25.40;5.63;;;16.60;93.60;;;;;;4988892;28;20050;-50
2021/07/16 07:45:36;;;;;;;30.77;6.30;;;16.60;93.70;;;;;;5003776;28;20045;-52
2021/07/16 07:48:03;;;;;;;30.33;7.00;;;16.60;93.70;;;;;;4992694;28;20061;-53
2021/07/16 07:50:29;;;;;;;28.15;6.53;;;16.60;93.70;;;;;;4994359;28;20503;-51
2021/07/16 07:52:55;;;;;;;27.25;6.35;;;16.60;93.80;;;;;;4999861;28;20446;-50
2021/07/16 07:55:24;;;;;;;26.88;6.70;;;16.70;93.80;;;;;;5008719;28;20069;-49
2021/07/16 07:57:54;;;;;;;29.65;6.90;;;16.60;93.80;;;;;;4979670;28;20120;-54
2021/07/16 08:00:24;;;;;;;24.17;5.85;;;16.70;93.90;;;;;;4992897;28;20050;-53
2021/07/16 08:02:50;;;;;;;27.33;6.18;;;16.70;93.90;;;;;;4993373;28;20073;-54
2021/07/16 08:05:16;;;;;;;25.63;6.35;;;16.70;93.90;;;;;;4995318;28;20088;-55
2021/07/16 08:07:42;;;;;;;28.42;6.47;;;16.70;93.80;;;;;;5018872;28;20081;-54
2021/07/16 08:10:11;;;;;;;27.17;6.55;;;16.80;93.90;;;;;;5011681;28;20383;-55
2021/07/16 08:12:38;;;;;;;33.42;6.70;;;16.80;93.80;;;;;;5011190;28;20410;-54
2021/07/16 08:15:06;;;;;;;26.00;6.47;;;16.80;93.70;;;;;;5011707;28;20415;-55
2021/07/16 08:17:34;;;;;;;27.95;5.85;;;16.80;93.60;;;;;;5005506;28;20133;-55
2021/07/16 08:20:00;;;;;;;29.10;6.95;;;16.90;93.50;;;;;;4988554;28;20049;-54
2021/07/16 08:22:26;;;;;;;24.00;5.45;;;16.90;93.50;;;;;;5012336;28;20038;-54
2021/07/16 08:24:52;;;;;;;26.40;5.65;;;16.90;93.50;;;;;;5011639;28;20813;-54
2021/07/16 08:27:18;;;;;;;30.08;6.15;;;17.00;93.40;;;;;;5012063;28;20038;-54
2021/07/16 08:29:46;;;;;;;28.95;6.15;;;17.00;93.30;;;;;;5011619;28;20125;-53
2021/07/16 08:32:12;;;;;;;30.40;6.45;;;17.00;93.20;;;;;;5011848;28;20388;-51
2021/07/16 08:34:38;;;;;;;24.50;6.25;;;17.00;93.20;;;;;;5010309;28;20081;-52
2021/07/16 08:37:04;;;;;;;24.73;6.43;;;17.10;93.10;;;;;;5012091;28;20050;-53
2021/07/16 08:39:30;;;;;;;32.92;5.80;;;17.10;93.10;;;;;;5012165;28;20099;-51
2021/07/16 08:42:00;;;;;;;32.20;6.90;;;17.10;93.00;;;;;;5010064;28;20046;-49
2021/07/16 08:44:27;;;;;;;26.85;6.38;;;17.10;93.00;;;;;;5010119;28;20049;-52
2021/07/16 08:46:53;;;;;;;25.67;6.00;;;17.10;93.00;;;;;;5011479;28;20041;-52
2021/07/16 08:49:20;;;;;;;24.30;5.95;;;17.10;92.90;;;;;;5010706;28;20050;-52
2021/07/16 08:51:45;;;;;;;30.45;6.07;;;17.10;92.90;;;;;;5004898;28;20495;-53
2021/07/16 08:54:16;;;;;;;30.13;6.72;;;17.10;92.90;;;;;;5011299;28;20046;-52
2021/07/16 08:56:45;;;;;;;25.58;6.00;;;17.10;92.90;;;;;;5013038;28;20038;-52
2021/07/16 08:59:14;;;;;;;27.27;6.30;;;17.10;92.90;;;;;;5013497;28;20413;-52
2021/07/16 09:01:43;;;;;;;25.80;5.85;;;17.10;92.90;;;;;;5011356;28;20459;-54
2021/07/16 09:04:10;;;;;;;27.55;5.82;;;17.20;92.90;;;;;;5011216;28;20080;-50
2021/07/16 09:06:57;;;;;;;23.30;6.40;;;17.20;92.90;;;;;;4997522;28;20459;-53
2021/07/16 09:09:25;;;;;;;27.33;6.13;;;17.20;92.80;;;;;;5012735;28;20510;-53
2021/07/16 09:11:53;;;;;;;30.95;7.05;;;17.20;92.70;;;;;;5010852;28;20391;-53
2021/07/16 09:14:28;;;;;;;32.25;6.20;;;17.20;92.70;;;;;;5014427;28;20585;-51
2021/07/16 09:17:07;;;;;;;27.30;6.07;;;17.20;92.70;;;;;;5017406;28;20438;-54
2021/07/16 09:19:45;;;;;;;31.10;6.10;;;17.20;92.60;;;;;;5017019;28;20050;-54
2021/07/16 09:22:14;;;;;;;31.65;6.88;;;17.20;92.60;;;;;;5031450;28;20038;-55
2021/07/16 09:24:53;;;;;;;20.25;7.10;;;17.10;92.70;;;;;;5025313;28;20045;-54
2021/07/16 09:27:42;;;;;;;28.40;5.78;;;17.20;92.70;;;;;;5004869;28;20505;-52
2021/07/16 09:30:25;;;;;;;33.60;6.25;;;17.20;92.80;;;;;;5019740;28;20061;-55
2021/07/16 09:32:53;;;;;;;27.88;6.40;;;17.20;92.70;;;;;;5002148;28;20046;-53
2021/07/16 09:35:27;;;;;;;25.13;5.88;;;17.30;92.70;;;;;;5011874;28;20061;-53
2021/07/16 09:38:05;;;;;;;28.80;6.40;;;17.30;92.60;;;;;;5005647;28;20068;-55
2021/07/16 09:40:40;;;;;;;28.85;6.50;;;17.40;92.60;;;;;;5015445;28;20710;-52
2021/07/16 09:43:11;;;;;;;26.65;7.28;;;17.50;92.30;;;;;;5014940;28;20147;-53
2021/07/16 09:45:39;;;;;;;30.25;6.50;;;17.50;92.30;;;;;;5028112;28;20080;-50
2021/07/16 09:48:17;;;;;;;31.85;6.43;;;17.60;92.20;;;;;;5002669;28;20324;-53
2021/07/16 09:50:44;;;;;;;29.25;6.40;;;17.60;92.00;;;;;;5005165;28;20042;-53
2021/07/16 09:53:26;;;;;;;29.55;6.60;;;17.70;92.00;;;;;;5013569;28;20038;-51
2021/07/16 09:56:13;;;;;;;27.83;6.00;;;17.70;92.00;;;;;;5015381;28;20494;-50
2021/07/16 09:58:39;;;;;;;61.03;8.13;;;17.80;91.60;;;;;;5020253;28;20049;-50
2021/07/16 10:01:09;;;;;;;28.90;6.78;;;17.80;91.60;;;;;;5011951;28;20429;-53
2021/07/16 10:03:40;;;;;;;31.15;6.70;;;17.80;91.70;;;;;;5018009;28;20069;-53
2021/07/16 10:06:10;;;;;;;25.55;5.60;;;17.90;91.30;;;;;;5018015;28;20529;-55
2021/07/16 10:08:36;;;;;;;25.10;6.05;;;17.90;91.20;;;;;;5020439;28;20105;-54
2021/07/16 10:11:05;;;;;;;39.38;6.60;;;17.80;91.20;;;;;;5016386;28;20069;-53
2021/07/16 10:13:36;;;;;;;29.65;6.30;;;17.80;91.00;;;;;;4986939;28;20426;-53
2021/07/16 10:16:03;;;;;;;28.45;6.35;;;17.70;90.90;;;;;;5015608;28;20042;-53
2021/07/16 10:18:29;;;;;;;29.20;6.15;;;17.70;90.90;;;;;;5017430;28;20050;-54
2021/07/16 10:20:57;;;;;;;32.30;7.65;;;17.70;91.10;;;;;;4995857;28;20116;-54
2021/07/16 10:23:27;;;;;;;31.42;7.05;;;17.70;91.20;;;;;;5023508;28;20054;-54
2021/07/16 10:25:54;;;;;;;26.55;6.85;;;17.70;91.30;;;;;;5023446;28;20103;-54
2021/07/16 10:28:32;;;;;;;24.75;6.38;;;17.80;91.50;;;;;;5023594;28;20333;-54
2021/07/16 10:30:59;;;;;;;35.40;6.82;;;17.90;91.10;;;;;;5023531;28;20033;-54
2021/07/16 10:33:38;;;;;;;34.88;6.90;;;17.90;91.10;;;;;;5023686;28;20042;-51
2021/07/16 10:36:09;;;;;;;29.52;7.50;;;18.00;90.90;;;;;;5020037;28;20042;-53
2021/07/16 10:38:35;;;;;;;28.83;6.95;;;17.90;90.90;;;;;;5021344;28;20049;-52
2021/07/16 10:41:01;;;;;;;32.28;7.03;;;17.90;90.90;;;;;;5023715;28;20048;-53
2021/07/16 10:43:27;;;;;;;28.10;7.03;;;18.00;90.70;;;;;;5022182;28;20053;-54
2021/07/16 10:45:56;;;;;;;23.85;6.93;;;18.10;90.00;;;;;;5008278;28;20045;-52
2021/07/16 10:48:33;;;;;;;26.75;6.38;;;18.00;90.30;;;;;;5020163;28;20044;-54
2021/07/16 10:51:01;;;;;;;28.55;6.30;;;18.10;90.70;;;;;;5016594;28;20046;-53
2021/07/16 10:53:27;;;;;;;30.67;7.13;;;18.10;90.70;;;;;;5015167;28;20042;-54
2021/07/16 10:55:55;;;;;;;22.83;6.00;;;18.00;90.80;;;;;;5005444;28;20034;-54
2021/07/16 10:58:30;;;;;;;25.85;5.93;;;18.00;91.00;;;;;;5019475;28;20081;-54
2021/07/16 11:01:02;;;;;;;26.48;6.38;;;18.00;91.00;;;;;;5009297;28;20038;-53
2021/07/16 11:03:41;;;;;;;25.63;6.43;;;18.00;90.90;;;;;;5009979;28;20034;-54
2021/07/16 11:06:15;;;;;;;26.70;6.88;;;18.00;90.90;;;;;;5013579;28;20049;-54
2021/07/16 11:08:40;;;;;;;27.05;6.60;;;18.10;91.20;;;;;;5000160;28;20041;-54
2021/07/16 11:11:15;;;;;;;25.83;6.32;;;18.00;91.00;;;;;;5013260;28;20121;-54
2021/07/16 11:13:54;;;;;;;29.85;6.82;;;18.10;91.20;;;;;;5013667;28;20128;-54
2021/07/16 11:16:34;;;;;;;26.52;7.20;;;18.10;91.20;;;;;;5012408;28;20042;-54
2021/07/16 11:19:03;;;;;;;24.10;6.25;;;18.20;91.20;;;;;;5029930;28;20057;-52
2021/07/16 11:21:47;;;;;;;28.98;6.38;;;18.30;91.10;;;;;;5034271;28;20066;-54
2021/07/16 11:24:16;;;;;;;28.92;6.47;;;18.30;90.40;;;;;;5021856;28;20133;-54
2021/07/16 11:26:50;;;;;;;23.63;6.05;;;18.40;90.10;;;;;;5017916;28;20038;-51
2021/07/16 11:29:17;;;;;;;29.98;6.88;;;18.40;89.80;;;;;;5022387;28;20557;-54
2021/07/16 11:31:43;;;;;;;25.25;6.40;;;18.60;87.10;;;;;;5006865;28;20049;-53
2021/07/16 11:34:13;;;;;;;25.30;6.30;;;18.70;87.00;;;;;;5018872;28;20114;-53
2021/07/16 11:36:54;;;;;;;20.85;6.55;;;18.70;87.30;;;;;;5019790;28;20072;-54
2021/07/16 11:39:37;;;;;;;24.33;6.55;;;18.70;88.40;;;;;;5005173;28;20053;-52
2021/07/16 11:42:05;;;;;;;25.13;7.00;;;18.70;87.70;;;;;;5017894;28;20045;-48
2021/07/16 11:44:35;;;;;;;26.60;6.05;;;18.70;88.60;;;;;;5017704;28;20109;-49
2021/07/16 11:47:25;;;;;;;26.35;6.90;;;18.80;86.40;;;;;;5016750;28;20046;-49
2021/07/16 11:49:56;;;;;;;24.92;7.13;;;18.80;87.80;;;;;;5020106;28;20042;-49
2021/07/16 11:52:25;;;;;;;30.08;7.05;;;18.90;87.70;;;;;;5021378;28;20053;-51
2021/07/16 11:54:53;;;;;;;33.08;7.35;;;18.80;87.00;;;;;;5012763;28;20050;-51
2021/07/16 11:57:20;;;;;;;23.70;7.15;;;18.80;88.20;;;;;;5024420;28;20033;-49
2021/07/16 11:59:47;;;;;;;25.15;6.93;;;18.80;89.10;;;;;;5010788;28;20039;-54
2021/07/16 12:02:16;;;;;;;28.52;7.07;;;18.80;89.50;;;;;;5019325;28;20072;-53
2021/07/16 12:04:44;;;;;;;24.67;6.47;;;18.80;89.30;;;;;;5009615;28;20045;-53
2021/07/16 12:07:11;;;;;;;27.40;7.30;;;18.80;89.20;;;;;;5006886;28;20065;-53
2021/07/16 12:09:39;;;;;;;27.30;6.80;;;18.80;89.70;;;;;;5018488;28;20034;-50
2021/07/16 12:12:10;;;;;;;27.45;7.43;;;18.80;89.50;;;;;;5030344;28;20160;-54
2021/07/16 12:14:54;;;;;;;24.45;6.25;;;18.80;89.50;;;;;;5029116;28;20721;-52
2021/07/16 12:17:23;;;;;;;22.75;6.50;;;18.80;87.70;;;;;;5022294;28;20203;-51
2021/07/16 12:19:49;;;;;;;25.48;6.28;;;18.80;88.50;;;;;;5000424;28;20041;-52
2021/07/16 12:22:19;;;;;;;22.52;6.45;;;18.80;89.10;;;;;;5026550;28;20042;-51
2021/07/16 12:24:46;;;;;;;30.02;7.97;;;18.80;89.00;;;;;;5016942;28;20033;-52
2021/07/16 12:27:13;;;;;;;27.92;7.20;;;18.80;89.30;;;;;;5014567;28;20049;-50
2021/07/16 12:29:40;;;;;;;30.58;7.05;;;18.90;89.50;;;;;;5006714;28;20052;-53
2021/07/16 12:32:07;;;;;;;23.92;6.65;;;18.90;88.40;;;;;;5019665;28;20070;-49
2021/07/16 12:34:33;;;;;;;25.05;7.10;;;19.00;88.50;;;;;;5025219;28;20045;-53
2021/07/16 12:37:05;;;;;;;27.52;7.38;;;19.00;88.40;;;;;;5022230;28;20049;-52
2021/07/16 12:39:31;;;;;;;25.58;7.07;;;19.00;88.70;;;;;;5030338;28;20643;-49
2021/07/16 12:42:13;;;;;;;26.27;7.97;;;19.00;89.10;;;;;;5032612;28;20113;-49
2021/07/16 12:44:40;;;;;;;32.80;7.30;;;19.10;87.60;;;;;;5020549;28;20041;-54